createdAt,value
2022-12-15T00:00:41.625Z,27.08
2022-12-15T00:07:21.225Z,27.08
2022-12-15T00:10:35.675Z,27.50
2022-12-15T00:13:57.298Z,27.02
2022-12-15T00:17:11.339Z,26.27
2022-12-15T00:20:30.012Z,27.77
2022-12-15T00:23:45.847Z,27.10
2022-12-15T00:27:03.427Z,26.92
2022-12-15T00:30:17.732Z,26.02
2022-12-15T00:33:32.313Z,27.55
2022-12-15T00:36:46.758Z,27.20
2022-12-15T00:39:43.231Z,27.60
2022-12-15T00:48:46.690Z,26.60
2022-12-15T00:51:12.250Z,28.63
2022-12-15T00:54:50.062Z,27.02
2022-12-15T01:02:12.888Z,27.17
2022-12-15T01:05:34.689Z,27.65
2022-12-15T01:08:57.982Z,27.33
2022-12-15T01:12:15.040Z,28.25
2022-12-15T01:15:36.470Z,26.90
2022-12-15T01:18:57.877Z,27.58
2022-12-15T01:25:02.457Z,27.60
2022-12-15T01:28:05.240Z,28.20
2022-12-15T01:30:59.043Z,26.80
2022-12-15T01:34:04.293Z,27.42
2022-12-15T01:36:58.414Z,26.38
2022-12-15T01:40:16.395Z,28.05
2022-12-15T01:43:13.639Z,27.40
2022-12-15T01:49:35.994Z,27.13
2022-12-15T01:52:47.178Z,27.75
2022-12-15T01:55:45.874Z,29.00
2022-12-15T01:59:02.428Z,28.05
2022-12-15T02:01:57.515Z,28.48
2022-12-15T02:05:01.122Z,29.27
2022-12-15T02:07:55.469Z,31.08
2022-12-15T02:14:54.900Z,29.60
2022-12-15T02:18:18.024Z,30.88
2022-12-15T02:21:38.390Z,30.95
2022-12-15T02:28:38.758Z,31.70
2022-12-15T02:32:19.622Z,31.50
2022-12-15T02:35:55.389Z,29.45
2022-12-15T02:38:58.475Z,27.98
2022-12-15T02:41:55.353Z,30.00
2022-12-15T02:45:23.353Z,27.67
2022-12-15T02:49:12.756Z,27.48
2022-12-15T02:52:26.739Z,29.25
2022-12-15T02:55:57.393Z,28.58
2022-12-15T02:59:25.121Z,27.45
2022-12-15T03:02:17.064Z,27.48
2022-12-15T03:05:12.098Z,29.55
2022-12-15T03:08:10.915Z,27.75
2022-12-15T03:11:12.031Z,30.05
2022-12-15T03:14:14.268Z,30.85
2022-12-15T03:17:21.300Z,28.00
2022-12-15T03:20:28.058Z,28.45
2022-12-15T03:26:54.382Z,29.30
2022-12-15T03:29:48.326Z,28.05
2022-12-15T03:32:41.608Z,30.27
2022-12-15T03:35:47.619Z,30.92
2022-12-15T03:38:41.062Z,31.02
2022-12-15T03:44:55.716Z,32.95
2022-12-15T03:48:00.379Z,31.60
2022-12-15T03:51:11.538Z,32.58
2022-12-15T03:54:14.531Z,34.25
2022-12-15T03:57:08.111Z,25.63
2022-12-15T04:03:04.589Z,35.50
2022-12-15T04:05:52.950Z,32.42
2022-12-15T04:08:41.119Z,34.42
2022-12-15T04:11:35.437Z,34.30
2022-12-15T04:14:23.575Z,33.55
2022-12-15T04:17:13.226Z,35.42
2022-12-15T04:20:13.112Z,35.97
2022-12-15T04:23:05.518Z,35.85
2022-12-15T04:26:14.894Z,34.45
2022-12-15T04:29:28.700Z,34.05
2022-12-15T04:32:42.452Z,34.90
2022-12-15T04:35:55.827Z,34.03
2022-12-15T04:39:08.009Z,28.23
2022-12-15T04:42:22.792Z,33.30
2022-12-15T04:45:39.473Z,31.05
2022-12-15T04:48:46.405Z,31.85
2022-12-15T04:52:05.191Z,31.77
2022-12-15T04:55:14.861Z,32.15
2022-12-15T04:58:35.918Z,33.35
2022-12-15T05:01:42.641Z,32.03
2022-12-15T05:04:49.663Z,34.20
2022-12-15T05:08:00.848Z,30.65
2022-12-15T05:11:12.765Z,30.67
2022-12-15T05:14:25.402Z,33.00
2022-12-15T05:17:41.663Z,34.10
2022-12-15T05:21:07.687Z,32.38
2022-12-15T05:24:18.258Z,33.42
2022-12-15T05:27:30.339Z,31.65
2022-12-15T05:30:37.477Z,32.67
2022-12-15T05:33:30.469Z,31.90
2022-12-15T05:36:31.021Z,33.25
2022-12-15T05:39:32.990Z,31.63
2022-12-15T05:42:21.852Z,31.17
2022-12-15T05:45:29.373Z,28.58
2022-12-15T05:48:20.891Z,32.10
2022-12-15T05:51:32.084Z,30.20
2022-12-15T05:54:36.390Z,30.40
2022-12-15T05:57:35.606Z,30.38
2022-12-15T06:03:45.063Z,30.73
2022-12-15T06:07:14.037Z,30.33
2022-12-15T06:10:20.519Z,31.75
2022-12-15T06:13:35.316Z,29.80
2022-12-15T06:19:34.035Z,30.95
2022-12-15T06:22:28.170Z,30.80
2022-12-15T06:25:29.273Z,31.95
2022-12-15T06:28:46.870Z,37.10
2022-12-15T06:35:01.827Z,36.53
2022-12-15T06:38:09.356Z,34.58
2022-12-15T06:41:43.581Z,37.60
2022-12-15T06:44:31.760Z,37.85
2022-12-15T06:47:24.715Z,37.50
2022-12-15T06:50:12.806Z,37.95
2022-12-15T06:53:06.228Z,39.03
2022-12-15T06:55:59.976Z,39.47
2022-12-15T07:04:22.937Z,37.93
2022-12-15T07:07:14.494Z,37.78
2022-12-15T07:10:04.105Z,37.15
2022-12-15T07:15:46.984Z,39.95
2022-12-15T07:18:35.981Z,40.63
2022-12-15T07:21:26.879Z,39.33
2022-12-15T07:24:15.974Z,42.35
2022-12-15T07:27:06.863Z,42.25
2022-12-15T07:29:55.194Z,41.25
2022-12-15T07:32:50.625Z,42.45
2022-12-15T07:35:48.851Z,42.30
2022-12-15T07:38:37.355Z,41.03
2022-12-15T07:41:28.188Z,40.30
2022-12-15T07:44:19.193Z,40.22
2022-12-15T07:47:13.000Z,39.80
2022-12-15T07:50:08.633Z,37.67
2022-12-15T07:54:04.484Z,39.45
2022-12-15T07:56:26.346Z,39.72
2022-12-15T07:59:17.331Z,38.35
2022-12-15T08:02:11.296Z,38.67
2022-12-15T08:05:05.365Z,35.60
2022-12-15T08:08:09.623Z,33.13
2022-12-15T08:11:12.599Z,31.02
2022-12-15T08:14:03.168Z,29.52
2022-12-15T08:16:52.886Z,30.13
2022-12-15T08:19:43.759Z,32.63
2022-12-15T08:22:32.227Z,33.35
2022-12-15T08:25:37.267Z,32.97
2022-12-15T08:28:25.495Z,34.88
2022-12-15T08:31:19.149Z,36.35
2022-12-15T08:37:03.741Z,36.42
2022-12-15T08:40:04.725Z,37.03
2022-12-15T08:42:53.373Z,40.40
2022-12-15T08:45:49.427Z,39.15
2022-12-15T08:48:41.455Z,40.90
2022-12-15T08:51:32.282Z,41.50
2022-12-15T08:54:25.420Z,41.85
2022-12-15T08:57:16.786Z,32.28
2022-12-15T09:00:06.208Z,41.15
2022-12-15T09:03:17.672Z,41.03
2022-12-15T09:06:11.856Z,42.83
2022-12-15T09:09:32.795Z,42.40
2022-12-15T09:12:24.490Z,43.50
2022-12-15T09:15:16.861Z,41.30
2022-12-15T09:18:08.968Z,41.55
2022-12-15T09:21:06.401Z,41.05
2022-12-15T09:24:03.173Z,38.70
2022-12-15T09:27:10.519Z,40.33
2022-12-15T09:30:20.837Z,38.50
2022-12-15T09:33:12.211Z,39.33
2022-12-15T09:36:21.448Z,41.58
2022-12-15T09:39:30.450Z,40.65
2022-12-15T09:47:03.989Z,38.42
2022-12-15T09:50:32.726Z,38.55
2022-12-15T09:54:15.294Z,36.22
2022-12-15T09:57:48.732Z,40.75
2022-12-15T10:02:13.196Z,41.53
2022-12-15T10:09:37.413Z,41.03
2022-12-15T10:12:41.969Z,41.10
2022-12-15T10:20:00.065Z,42.65
2022-12-15T10:23:17.980Z,39.90
2022-12-15T10:26:27.549Z,40.67
2022-12-15T10:30:01.876Z,41.78
2022-12-15T10:34:46.864Z,38.42
2022-12-15T10:36:23.751Z,39.97
2022-12-15T10:39:28.805Z,39.33
2022-12-15T10:42:31.286Z,42.80
2022-12-15T10:49:17.880Z,40.95
2022-12-15T10:52:14.513Z,38.58
2022-12-15T10:55:41.425Z,39.15
2022-12-15T10:58:39.800Z,38.63
2022-12-15T11:01:46.265Z,36.70
2022-12-15T11:04:58.113Z,36.15
2022-12-15T11:08:12.313Z,41.50
2022-12-15T11:11:25.959Z,40.33
2022-12-15T11:14:38.320Z,40.72
2022-12-15T11:17:39.837Z,41.13
2022-12-15T11:26:41.003Z,39.58
2022-12-15T11:30:29.559Z,40.65
2022-12-15T11:33:19.864Z,38.58
2022-12-15T11:36:28.843Z,38.60
2022-12-15T11:39:30.884Z,40.80
2022-12-15T11:42:52.974Z,39.15
2022-12-15T11:46:13.858Z,40.78
2022-12-15T11:49:29.431Z,40.35
2022-12-15T11:53:12.446Z,41.08
2022-12-15T11:56:31.047Z,41.55
2022-12-15T11:59:50.025Z,36.72
2022-12-15T12:03:24.874Z,40.22
2022-12-15T12:06:35.835Z,38.50
2022-12-15T12:10:01.525Z,37.58
2022-12-15T12:13:45.812Z,36.50
2022-12-15T12:17:06.578Z,38.95
2022-12-15T12:20:40.644Z,38.13
2022-12-15T12:24:18.373Z,29.85
2022-12-15T12:27:59.084Z,37.92
2022-12-15T12:37:40.283Z,38.58
2022-12-15T12:43:58.885Z,35.60
2022-12-15T12:46:59.336Z,39.08
2022-12-15T12:57:55.604Z,39.55
2022-12-15T13:01:44.960Z,40.20
2022-12-15T13:05:21.524Z,38.80
2022-12-15T13:12:27.575Z,38.47
2022-12-15T13:15:37.218Z,37.80
2022-12-15T13:18:42.222Z,39.70
2022-12-15T13:21:42.663Z,38.13
2022-12-15T13:24:39.574Z,39.75
2022-12-15T13:28:05.329Z,37.53
2022-12-15T13:31:53.065Z,37.70
2022-12-15T13:35:01.869Z,35.03
2022-12-15T13:38:19.607Z,34.10
2022-12-15T13:42:23.678Z,35.90
2022-12-15T13:45:28.674Z,34.90
2022-12-15T13:54:28.393Z,36.08
2022-12-15T13:57:51.826Z,34.63
2022-12-15T14:00:59.153Z,34.65
2022-12-15T14:04:17.159Z,34.58
2022-12-15T14:07:10.615Z,35.45
2022-12-15T14:10:05.086Z,35.15
2022-12-15T14:13:15.510Z,33.67
2022-12-15T14:16:19.090Z,36.47
2022-12-15T14:19:26.568Z,36.22
2022-12-15T14:22:36.034Z,37.60
2022-12-15T14:25:33.671Z,37.63
2022-12-15T14:28:41.180Z,37.35
2022-12-15T14:31:37.707Z,38.10
2022-12-15T14:35:00.222Z,39.45
2022-12-15T14:37:48.656Z,40.63
2022-12-15T14:40:40.067Z,40.63
2022-12-15T14:43:37.257Z,40.35
2022-12-15T14:46:27.814Z,41.47
2022-12-15T14:49:37.346Z,41.55
2022-12-15T14:52:41.683Z,40.47
2022-12-15T14:55:39.627Z,40.60
2022-12-15T14:58:38.639Z,41.90
2022-12-15T15:01:45.423Z,40.97
2022-12-15T15:04:41.648Z,41.72
2022-12-15T15:07:36.149Z,41.47
2022-12-15T15:10:39.788Z,43.60
2022-12-15T15:13:41.616Z,44.70
2022-12-15T15:16:53.231Z,42.95
2022-12-15T15:20:26.948Z,46.28
2022-12-15T15:26:03.313Z,45.70
2022-12-15T15:29:34.232Z,46.22
2022-12-15T15:32:25.847Z,46.28
2022-12-15T15:35:21.859Z,46.00
2022-12-15T15:38:38.845Z,46.13
2022-12-15T15:41:46.187Z,45.53
2022-12-15T15:44:34.327Z,43.47
2022-12-15T15:47:30.678Z,46.13
2022-12-15T15:50:27.239Z,47.08
2022-12-15T15:53:23.366Z,45.03
2022-12-15T15:56:32.253Z,44.72
2022-12-15T15:59:33.210Z,43.88
2022-12-15T16:02:38.894Z,43.92
2022-12-15T16:05:35.739Z,44.28
2022-12-15T16:08:35.249Z,42.95
2022-12-15T16:11:55.612Z,44.13
2022-12-15T16:14:58.678Z,45.22
2022-12-15T16:18:27.581Z,47.30
2022-12-15T16:21:26.520Z,42.80
2022-12-15T16:24:40.943Z,43.38
2022-12-15T16:27:29.600Z,43.00
2022-12-15T16:30:50.707Z,41.05
2022-12-15T16:33:52.104Z,41.80
2022-12-15T16:36:45.641Z,39.88
2022-12-15T16:42:35.180Z,40.58
2022-12-15T16:45:28.820Z,38.40
2022-12-15T16:51:34.952Z,35.67
2022-12-15T16:54:36.436Z,37.17
2022-12-15T16:57:44.625Z,37.42
2022-12-15T17:00:35.732Z,36.85
2022-12-15T17:03:30.697Z,37.25
2022-12-15T17:06:29.555Z,38.75
2022-12-15T17:09:24.208Z,39.35
2022-12-15T17:12:18.289Z,38.25
2022-12-15T17:15:25.441Z,38.80
2022-12-15T17:18:15.015Z,39.22
2022-12-15T17:21:12.637Z,39.55
2022-12-15T17:24:08.305Z,39.58
2022-12-15T17:26:56.438Z,38.80
2022-12-15T17:29:44.770Z,41.65
2022-12-15T17:32:32.628Z,41.88
2022-12-15T17:35:21.536Z,40.30
2022-12-15T17:38:18.347Z,39.63
2022-12-15T17:41:15.519Z,38.55
2022-12-15T17:44:36.263Z,38.53
2022-12-15T17:47:25.581Z,38.80
2022-12-15T17:50:23.370Z,39.13
2022-12-15T17:53:13.781Z,40.20
2022-12-15T17:56:04.656Z,39.15
2022-12-15T17:58:58.151Z,38.17
2022-12-15T18:02:00.293Z,40.03
2022-12-15T18:05:00.211Z,38.42
2022-12-15T18:07:58.381Z,39.17
2022-12-15T18:10:49.292Z,38.85
2022-12-15T18:13:49.283Z,38.33
2022-12-15T18:16:39.533Z,37.45
2022-12-15T18:19:35.134Z,36.15
2022-12-15T18:22:27.851Z,37.58
2022-12-15T18:25:31.611Z,36.25
2022-12-15T18:28:37.583Z,36.03
2022-12-15T18:31:30.451Z,36.22
2022-12-15T18:34:24.162Z,35.60
2022-12-15T18:37:32.303Z,34.97
2022-12-15T18:40:25.315Z,35.67
2022-12-15T18:43:22.684Z,33.88
2022-12-15T18:46:16.320Z,33.75
2022-12-15T18:52:00.116Z,33.72
2022-12-15T18:54:49.904Z,35.75
2022-12-15T18:57:38.022Z,35.45
2022-12-15T19:00:28.779Z,35.35
2022-12-15T19:03:20.116Z,33.95
2022-12-15T19:06:26.065Z,33.70
2022-12-15T19:09:23.268Z,32.45
2022-12-15T19:12:18.286Z,33.33
2022-12-15T19:15:21.261Z,32.63
2022-12-15T19:18:34.489Z,33.57
2022-12-15T19:21:44.393Z,31.97
2022-12-15T19:24:51.229Z,33.33
2022-12-15T19:27:39.235Z,35.22
2022-12-15T19:30:38.620Z,34.75
2022-12-15T19:33:30.060Z,34.72
2022-12-15T19:36:23.683Z,35.67
2022-12-15T19:39:22.471Z,35.13
2022-12-15T19:42:30.003Z,33.58
2022-12-15T19:45:23.457Z,30.80
2022-12-15T19:48:18.698Z,32.42
2022-12-15T19:51:19.821Z,31.15
2022-12-15T19:54:17.766Z,32.22
2022-12-15T20:01:45.550Z,35.00
2022-12-15T20:04:34.449Z,32.65
2022-12-15T20:07:32.221Z,33.75
2022-12-15T20:10:32.514Z,32.22
2022-12-15T20:13:29.730Z,30.58
2022-12-15T20:16:19.617Z,30.52
2022-12-15T20:19:12.154Z,30.50
2022-12-15T20:22:17.135Z,31.55
2022-12-15T20:25:09.040Z,29.40
2022-12-15T20:28:00.824Z,29.95
2022-12-15T20:30:50.644Z,30.38
2022-12-15T20:33:39.261Z,25.73
2022-12-15T20:36:50.497Z,25.48
2022-12-15T20:39:40.278Z,25.13
2022-12-15T20:42:45.337Z,25.38
2022-12-15T20:45:57.849Z,26.27
2022-12-15T20:48:48.762Z,25.35
2022-12-15T20:51:39.710Z,24.02
2022-12-15T20:54:36.899Z,24.00
2022-12-15T20:57:25.764Z,25.73
2022-12-15T21:03:50.439Z,22.35
2022-12-15T21:06:54.627Z,22.60
2022-12-15T21:10:10.528Z,22.13
2022-12-15T21:13:10.459Z,23.38
2022-12-15T21:15:58.564Z,21.45
2022-12-15T21:19:22.296Z,23.33
2022-12-15T21:22:36.033Z,22.73
2022-12-15T21:25:38.002Z,23.13
2022-12-15T21:32:58.023Z,22.67
2022-12-15T21:35:52.034Z,23.33
2022-12-15T21:38:56.633Z,22.63
2022-12-15T21:41:51.196Z,22.95
2022-12-15T21:44:39.936Z,22.13
2022-12-15T21:47:52.280Z,20.15
2022-12-15T21:50:47.788Z,21.27
2022-12-15T21:53:35.943Z,23.10
2022-12-15T21:56:38.804Z,20.38
2022-12-15T21:59:33.542Z,19.38
2022-12-15T22:02:27.841Z,21.10
2022-12-15T22:05:33.363Z,19.80
2022-12-15T22:08:57.064Z,19.85
2022-12-15T22:11:57.122Z,19.02
2022-12-15T22:14:48.446Z,19.27
2022-12-15T22:18:28.151Z,19.50
2022-12-15T22:25:02.682Z,19.58
2022-12-15T22:28:00.870Z,19.48
2022-12-15T22:30:58.453Z,19.38
2022-12-15T22:33:46.747Z,21.50
2022-12-15T22:36:36.013Z,19.77
2022-12-15T22:39:25.314Z,19.98
2022-12-15T22:42:19.772Z,18.70
2022-12-15T22:45:20.748Z,18.83
2022-12-15T22:48:19.710Z,19.42
2022-12-15T22:51:08.466Z,19.98
2022-12-15T22:53:58.098Z,20.55
2022-12-15T22:57:10.754Z,18.65
2022-12-15T23:00:23.258Z,20.05
2022-12-15T23:03:14.353Z,18.95
2022-12-15T23:06:03.585Z,19.27
2022-12-15T23:08:55.926Z,20.55
2022-12-15T23:11:44.778Z,19.33
2022-12-15T23:14:51.146Z,20.85
2022-12-15T23:17:40.099Z,19.05
2022-12-15T23:20:28.617Z,19.42
2022-12-15T23:23:17.527Z,19.65
2022-12-15T23:26:08.410Z,20.45
2022-12-15T23:28:56.635Z,20.48
2022-12-15T23:31:50.599Z,19.00
2022-12-15T23:34:45.856Z,18.35
2022-12-15T23:37:35.414Z,18.75
2022-12-15T23:40:23.416Z,17.80
2022-12-15T23:43:17.506Z,18.10
2022-12-15T23:46:13.256Z,17.73
2022-12-15T23:49:02.102Z,17.52
2022-12-15T23:52:01.324Z,16.70
2022-12-15T23:54:55.331Z,15.68
2022-12-15T23:57:48.092Z,15.68
